createdAt,value
2023-05-05T00:12:42.040Z,13.55
2023-05-05T00:27:43.993Z,12.30
2023-05-05T00:42:47.561Z,10.45
2023-05-05T00:57:50.296Z,11.32
2023-05-05T01:13:06.281Z,11.02
2023-05-05T01:28:36.210Z,10.40
2023-05-05T01:43:39.146Z,9.80
2023-05-05T01:58:44.493Z,10.20
2023-05-05T02:13:48.609Z,9.48
2023-05-05T02:28:58.842Z,8.98
2023-05-05T02:44:03.443Z,8.00
2023-05-05T02:59:42.070Z,7.47
2023-05-05T03:14:46.248Z,6.95
2023-05-05T03:29:48.315Z,6.15
2023-05-05T03:44:53.586Z,6.20
2023-05-05T03:59:55.963Z,5.47
2023-05-05T04:14:58.040Z,5.55
2023-05-05T04:30:00.052Z,5.60
2023-05-05T04:45:02.010Z,5.75
2023-05-05T05:00:05.681Z,5.20
2023-05-05T05:15:08.655Z,4.88
2023-05-05T05:30:11.036Z,3.60
2023-05-05T05:45:13.141Z,3.90
2023-05-05T06:00:16.151Z,3.65
2023-05-05T06:15:18.148Z,3.05
2023-05-05T06:30:20.201Z,3.45
2023-05-05T06:45:22.516Z,3.13
2023-05-05T07:00:24.678Z,3.30
2023-05-05T07:15:29.104Z,3.58
2023-05-05T07:30:31.854Z,2.88
2023-05-05T07:45:34.101Z,2.72
2023-05-05T08:00:36.110Z,3.10
2023-05-05T08:15:38.123Z,2.42
2023-05-05T08:30:40.170Z,2.35
2023-05-05T08:45:42.613Z,2.50
2023-05-05T09:00:46.621Z,2.60
2023-05-05T09:15:48.707Z,2.88
2023-05-05T09:30:51.005Z,2.95
2023-05-05T09:46:06.436Z,3.20
2023-05-05T10:01:23.121Z,3.65
2023-05-05T10:16:27.341Z,3.38
2023-05-05T10:32:27.224Z,3.60
2023-05-05T10:47:29.092Z,3.50
2023-05-05T11:02:31.755Z,3.00
2023-05-05T11:17:55.119Z,3.95
2023-05-05T11:33:37.269Z,3.00
2023-05-05T11:48:49.125Z,3.67
2023-05-05T12:03:51.304Z,3.17
2023-05-05T12:19:05.991Z,2.67
2023-05-05T12:34:09.952Z,2.83
2023-05-05T12:49:12.233Z,2.75
2023-05-05T13:04:14.955Z,2.80
2023-05-05T13:19:17.043Z,2.28
2023-05-05T13:34:19.040Z,2.22
2023-05-05T13:49:21.129Z,2.20
2023-05-05T14:04:23.248Z,3.15
2023-05-05T14:19:25.332Z,2.72
2023-05-05T14:34:27.522Z,2.78
2023-05-05T14:49:29.564Z,2.78
2023-05-05T15:04:31.560Z,2.75
2023-05-05T15:19:33.666Z,3.20
2023-05-05T15:34:37.473Z,2.70
2023-05-05T15:49:39.504Z,2.60
2023-05-05T16:04:41.504Z,3.10
2023-05-05T16:19:43.614Z,2.92
2023-05-05T16:34:46.079Z,3.08
2023-05-05T16:49:48.030Z,2.70
2023-05-05T17:04:50.084Z,3.40
2023-05-05T17:19:52.095Z,2.90
2023-05-05T17:34:54.026Z,4.22
2023-05-05T17:49:57.012Z,3.88
2023-05-05T18:04:59.072Z,3.47
2023-05-05T18:20:01.224Z,4.28
2023-05-05T18:35:03.289Z,4.68
2023-05-05T18:50:06.410Z,5.20
2023-05-05T19:05:10.436Z,4.55
2023-05-05T19:20:12.842Z,5.00
2023-05-05T19:35:15.065Z,4.60
2023-05-05T19:50:17.141Z,4.70
2023-05-05T20:05:19.268Z,4.63
2023-05-05T20:20:22.817Z,5.40
2023-05-05T20:35:25.144Z,6.53
2023-05-05T20:50:27.262Z,7.80
2023-05-05T21:05:29.774Z,6.75
2023-05-05T21:20:31.825Z,7.50
2023-05-05T21:35:33.914Z,7.70
2023-05-05T21:50:37.443Z,7.97
2023-05-05T22:05:39.440Z,6.90
2023-05-05T22:20:41.582Z,5.20
2023-05-05T22:35:43.597Z,3.90
2023-05-05T22:50:46.023Z,3.17
2023-05-05T23:05:47.909Z,3.05
2023-05-05T23:20:49.944Z,3.40
2023-05-05T23:35:52.007Z,3.55
2023-05-05T23:50:54.021Z,3.65
